Date,TemperatureHighF,TemperatureAvgF,TemperatureLowF,DewpointHighF,DewpointAvgF,DewpointLowF,HumidityHigh,HumidityAvg,HumidityLow,PressureMaxIn,PressureMinIn,WindSpeedMaxMPH,WindSpeedAvgMPH,GustSpeedMaxMPH,PrecipitationSumIn
2012-1-1,52.7,42.1,31.1,46.5,38.4,29.2,95,87,68,30.00,29.57,8,2,9,0.15
2012-1-2,45.9,36.4,27.7,44.0,25.9,19.2,93,67,48,29.69,29.55,7,2,8,0.00
2012-1-3,28.4,22.1,11.9,20.6,10.4,-0.6,77,61,48,29.97,29.67,6,2,8,0.00
2012-1-4,27.9,17.7,8.3,13.6,5.8,-0.9,73,60,48,30.07,29.83,5,1,5,0.00
2012-1-5,41.0,29.5,19.4,26.3,18.8,9.5,70,64,51,29.84,29.70,6,1,7,0.00
2012-1-6,50.2,38.8,28.4,33.8,28.0,20.8,78,66,52,29.84,29.64,5,2,7,0.00
2012-1-7,61.2,44.4,30.6,40.8,32.4,25.5,84,64,41,29.86,29.61,5,1,6,0.00
2012-1-8,44.3,35.3,25.2,29.0,23.5,16.4,73,62,48,30.20,29.86,4,1,4,0.00
2012-1-9,44.3,30.6,22.5,25.2,18.5,13.5,75,62,39,30.19,29.88,4,1,7,0.00
2012-1-10,47.9,34.7,22.9,32.4,25.2,17.4,82,69,53,29.89,29.74,5,1,5,0.00
2012-1-11,48.4,35.1,24.1,37.2,27.0,18.9,93,73,52,30.00,29.79,8,1,8,0.04
2012-1-12,39.6,37.8,35.8,38.0,36.1,34.2,95,94,92,29.78,29.36,10,3,12,0.79
2012-1-13,46.1,34.0,25.2,45.0,28.4,15.3,97,81,59,29.65,29.16,10,3,11,0.09
2012-1-14,34.6,26.5,20.9,21.7,16.2,10.2,74,65,53,29.94,29.65,8,2,8,0.00
2012-1-15,22.0,15.4,9.9,10.2,0.9,-3.0,68,53,36,30.42,29.93,5,1,7,0.00
2012-1-16,32.0,21.0,6.7,27.5,9.9,-2.9,87,62,43,30.45,30.04,10,2,12,0.00
2012-1-17,43.4,37.1,31.0,41.8,34.7,27.9,94,91,88,30.04,29.45,5,2,5,0.26
2012-1-18,46.4,33.8,17.6,44.8,21.4,6.1,95,61,45,30.05,29.45,7,2,10,0.01
2012-1-19,33.8,23.2,12.2,25.0,14.1,4.4,83,68,47,30.13,29.82,5,1,7,0.00
2012-1-20,32.0,25.8,21.1,25.0,14.0,7.7,80,62,43,30.17,29.81,6,1,6,0.00
2012-1-21,23.4,19.9,14.2,20.3,14.9,6.9,90,82,54,30.18,29.89,6,2,6,0.00
2012-1-22,31.1,21.8,10.6,24.7,16.7,6.8,89,80,70,30.40,30.18,7,2,7,0.03
2012-1-23,48.6,38.0,28.6,47.5,36.3,24.7,96,94,85,30.32,29.79,7,2,8,0.50
2012-1-24,54.9,44.4,38.5,47.4,39.8,31.6,96,84,67,30.01,29.79,7,1,7,0.01
2012-1-25,45.2,36.6,31.7,32.3,27.6,24.6,79,70,56,30.19,30.01,5,1,6,0.00
2012-1-26,38.7,33.7,31.1,37.4,29.1,25.3,95,84,71,30.11,29.75,4,1,7,0.20
2012-1-27,54.0,45.2,38.5,52.8,42.6,32.1,96,91,76,29.75,29.25,9,2,10,0.30
2012-1-28,48.2,38.1,29.9,36.3,29.7,23.9,83,72,57,29.93,29.71,8,2,10,0.00
2012-1-29,44.6,34.9,27.4,25.3,19.2,15.1,61,53,42,30.05,29.88,6,2,7,0.00
2012-1-30,41.0,32.1,24.1,22.5,18.2,12.5,67,57,40,30.19,29.86,8,1,8,0.00
2012-1-31,58.0,43.6,29.9,33.8,28.1,18.4,69,55,39,30.14,29.91,6,2,8,0.00
2012-2-1,61.7,50.5,40.7,47.4,38.1,31.3,79,63,52,29.92,29.77,7,2,7,0.06
2012-2-2,44.8,36.8,31.5,33.7,28.8,23.0,83,73,59,30.12,29.88,4,1,6,0.00
2012-2-3,42.1,31.6,23.2,23.2,19.6,16.1,75,62,44,30.32,30.12,5,1,6,0.00
2012-2-4,49.0,36.6,27.7,31.8,24.7,20.3,78,62,46,30.21,30.00,4,1,5,0.00
2012-2-5,40.0,29.6,20.5,23.0,17.9,13.5,75,62,43,30.05,29.98,5,1,5,0.00
2012-2-6,52.6,35.4,19.1,32.4,23.4,12.8,83,64,41,30.03,29.84,6,2,6,0.00
2012-2-7,50.6,38.3,30.2,31.7,26.2,21.6,71,62,46,30.13,29.83,5,1,6,0.00
2012-2-8,41.6,31.2,25.2,21.4,15.2,9.6,70,52,30,30.21,29.97,4,1,4,0.00
2012-2-9,46.4,32.6,23.8,25.7,20.0,14.8,84,62,38,30.03,29.93,4,1,6,0.00
2012-2-10,49.0,35.0,23.2,30.3,22.5,14.3,79,61,42,30.02,29.80,6,1,7,0.00
2012-2-11,37.4,33.3,26.8,31.5,25.1,18.6,84,72,63,29.80,29.46,5,1,6,0.02
2012-2-12,30.6,23.1,14.4,18.3,10.0,1.7,72,57,48,29.82,29.55,9,2,9,0.00
2012-2-13,44.5,32.1,21.1,22.5,16.5,10.1,68,54,35,29.91,29.78,8,2,8,0.00
2012-2-14,47.3,37.7,31.0,29.7,20.8,16.2,76,51,35,30.00,29.90,4,1,6,0.01
2012-2-15,45.4,38.6,31.1,39.8,33.4,26.2,90,82,76,30.17,29.97,2,0,3,0.00
2012-2-16,40.0,34.0,25.2,36.5,30.2,21.9,92,86,72,30.19,29.93,6,1,8,0.00
2012-2-17,52.7,40.8,31.3,43.7,32.4,20.2,94,74,47,29.92,29.82,4,1,7,0.00
2012-2-18,50.6,36.1,24.7,31.6,25.7,18.5,87,67,39,29.96,29.79,6,1,6,0.00
2012-2-19,45.4,34.2,26.6,27.5,23.4,17.9,90,66,44,29.98,29.87,10,1,10,0.01
2012-2-20,43.6,31.6,25.0,22.4,17.7,13.1,71,58,35,30.23,29.88,7,2,9,0.00
2012-2-21,46.1,33.9,19.4,35.2,24.6,12.4,85,69,51,30.26,29.76,10,2,11,0.00
2012-2-22,58.0,45.0,34.7,39.6,33.7,28.8,86,67,39,29.76,29.41,6,2,8,0.00
2012-2-23,58.0,44.3,33.8,43.7,33.0,23.2,90,67,42,29.69,29.29,6,1,10,0.00
2012-2-24,38.7,35.1,32.8,36.5,32.6,26.4,96,91,61,29.67,29.23,8,2,8,0.77
2012-2-25,43.9,36.1,28.4,34.8,24.3,12.7,95,63,43,29.87,29.28,9,3,11,0.03
2012-2-26,43.0,31.3,24.5,20.7,15.8,12.7,67,53,35,30.33,29.87,7,2,8,0.00
2012-2-27,53.8,38.6,23.0,36.2,28.0,14.4,79,66,49,30.32,29.97,9,2,11,0.00
2012-2-28,49.9,40.6,30.4,33.4,23.8,17.9,68,52,36,30.29,30.02,7,1,8,0.00
2012-2-29,38.5,33.7,30.6,32.7,27.0,19.4,95,78,54,30.27,29.69,8,2,9,0.20
2012-3-1,36.0,33.9,29.9,34.4,32.2,26.5,95,94,87,29.88,29.56,9,2,9,0.22
2012-3-2,36.5,32.1,27.5,33.8,28.9,24.1,94,88,82,30.03,29.72,7,2,9,0.09
2012-3-3,52.7,44.1,35.3,49.9,38.1,24.3,97,82,45,29.71,29.34,7,2,8,0.20
2012-3-4,48.2,37.5,30.2,29.3,23.1,18.5,66,56,38,29.63,29.47,6,1,6,0.00
2012-3-5,43.2,31.6,22.1,23.2,14.5,6.0,69,51,29,30.24,29.63,6,1,7,0.00
2012-3-6,44.6,30.0,16.2,24.3,13.8,5.8,75,52,32,30.48,30.24,6,1,9,0.00
2012-3-7,61.0,44.9,30.6,39.7,31.9,23.5,79,62,39,30.45,30.21,8,3,9,0.00
2012-3-8,68.4,55.3,42.7,52.6,46.4,38.1,88,73,55,30.21,29.72,11,4,11,0.00
2012-3-9,58.5,41.1,30.6,50.6,27.8,19.1,88,61,36,30.13,29.69,8,2,11,0.07
2012-3-10,43.0,31.7,24.1,20.6,14.5,10.4,64,49,36,30.40,30.13,9,1,9,0.00
2012-3-11,60.5,42.8,24.7,32.4,24.7,15.0,70,51,32,30.39,30.21,7,2,8,0.01
2012-3-12,74.7,52.7,33.3,45.2,34.1,26.0,78,53,25,30.24,30.04,8,1,8,0.00
2012-3-13,73.3,58.4,48.8,60.6,49.4,37.9,88,73,57,30.04,29.83,6,2,7,0.12
2012-3-14,69.3,56.0,43.4,51.0,37.0,23.7,90,55,23,30.12,29.88,4,1,7,0.00
2012-3-15,50.8,43.4,39.4,42.1,38.4,30.2,93,83,57,30.24,30.12,7,1,7,0.00
2012-3-16,50.8,43.3,38.7,46.4,40.6,36.5,94,90,85,30.21,30.01,5,1,5,0.02
2012-3-17,67.3,49.0,36.5,53.1,42.5,34.4,95,80,52,30.27,30.08,8,1,8,0.02
2012-3-18,72.4,52.6,39.1,57.5,46.0,35.5,92,80,57,30.26,30.11,6,1,6,0.02
2012-3-19,80.3,58.4,41.2,61.7,49.8,38.7,94,75,49,30.16,30.06,5,1,6,0.01
2012-3-20,78.7,61.2,48.6,64.4,53.6,44.9,93,77,56,30.24,30.15,6,1,8,0.00
2012-3-21,73.1,61.1,54.5,64.0,56.8,51.3,94,86,70,30.29,30.20,7,1,7,0.00
2012-3-22,79.4,63.8,55.3,64.4,56.8,51.7,94,80,54,30.21,29.99,5,1,6,0.00
2012-3-23,75.1,61.9,51.1,58.5,51.7,42.8,92,71,38,30.04,29.96,6,1,8,0.00
2012-3-24,61.7,54.0,47.2,45.4,32.7,25.7,78,46,26,30.02,29.90,7,2,9,0.00
2012-3-25,51.1,44.7,40.0,42.8,37.6,30.1,86,77,51,29.91,29.63,6,1,7,0.08
2012-3-26,52.4,41.8,30.4,45.9,25.4,5.8,94,57,31,29.98,29.58,8,2,13,0.00
2012-3-27,47.7,35.4,24.5,13.4,7.1,2.6,44,31,18,30.14,29.97,7,2,10,0.00
2012-3-28,60.1,47.6,31.7,46.5,33.1,12.2,81,58,41,30.05,29.47,7,2,8,0.08
2012-3-29,56.5,48.6,40.0,44.9,36.8,27.9,77,64,52,29.89,29.50,6,2,7,0.00
2012-3-30,54.4,43.9,32.8,30.3,24.2,17.6,69,48,25,29.96,29.85,5,1,6,0.00
2012-3-31,42.1,38.3,36.4,36.9,34.9,30.4,93,88,63,29.92,29.78,6,1,9,0.16
2012-4-1,54.0,43.6,36.4,43.5,38.3,33.6,93,82,61,29.80,29.53,4,1,7,0.24
2012-4-2,54.2,44.0,36.2,40.4,30.9,20.7,91,64,32,29.77,29.51,7,2,10,0.00
2012-4-3,61.2,45.9,26.1,27.5,20.4,15.8,74,40,18,29.82,29.66,7,1,7,0.00
2012-4-4,68.6,53.1,37.1,35.1,27.7,20.4,58,39,23,29.68,29.44,7,1,8,0.00
2012-4-5,55.8,44.4,33.7,32.0,26.9,22.3,70,51,34,29.84,29.64,6,1,7,0.00
2012-4-6,56.7,42.6,26.5,31.4,22.7,18.2,74,47,26,29.93,29.80,9,1,9,0.00
2012-4-7,59.6,46.5,28.6,27.7,22.2,15.9,65,40,21,29.96,29.85,12,2,12,0.00
2012-4-8,63.5,50.7,32.0,34.7,24.7,17.0,60,37,24,29.92,29.57,6,1,8,0.00
2012-4-9,62.3,52.9,44.3,33.4,25.4,18.9,56,36,22,29.61,29.51,10,2,10,0.00
2012-4-10,63.0,50.0,38.3,36.1,28.1,19.5,62,43,32,29.70,29.56,5,1,8,0.00
2012-4-11,54.2,44.5,36.4,39.0,31.8,27.3,83,62,44,29.80,29.67,6,1,6,0.02
2012-4-12,60.3,48.1,38.3,41.0,34.0,29.5,81,60,36,30.02,29.79,6,1,6,0.00
2012-4-13,65.2,50.9,34.2,36.6,30.4,24.7,80,49,27,30.10,30.00,6,1,7,0.00
2012-4-14,73.8,55.5,34.6,41.2,32.2,23.2,66,44,23,30.12,29.93,8,1,10,0.00
2012-4-15,79.6,64.5,52.9,60.1,51.6,36.4,82,64,46,29.96,29.87,5,1,6,0.01
2012-4-16,92.7,71.7,54.4,65.3,56.8,50.0,87,62,36,29.95,29.85,8,2,9,0.00
2012-4-17,79.2,67.9,54.9,56.7,46.3,33.5,79,49,25,30.10,29.84,7,1,8,0.00
2012-4-18,66.6,53.5,43.6,41.0,33.8,27.9,57,48,36,30.17,30.03,5,1,6,0.00
2012-4-19,74.9,58.3,46.8,51.0,43.5,35.3,81,60,39,30.04,29.91,6,2,7,0.00
2012-4-20,77.0,59.9,44.3,56.7,47.8,40.7,91,66,41,29.95,29.80,10,2,12,0.00
2012-4-21,78.7,63.4,54.2,62.5,54.8,47.1,89,75,54,29.80,29.61,9,2,13,0.00
2012-4-22,54.2,46.6,43.4,49.4,43.4,40.4,95,89,75,29.71,29.29,9,2,10,1.11
2012-4-23,51.8,47.1,41.8,50.7,44.9,38.2,96,92,86,29.31,29.10,7,3,11,0.02
2012-4-24,57.4,47.4,37.1,41.3,36.5,30.8,90,68,39,29.61,29.28,8,3,9,0.00
2012-4-25,64.1,48.7,32.9,42.5,34.2,27.7,84,60,38,29.82,29.61,5,1,7,0.00
2012-4-26,60.5,47.2,32.0,49.6,40.2,27.6,91,77,58,29.83,29.50,8,1,9,0.03
2012-4-27,56.0,46.9,34.7,50.8,34.2,24.1,93,63,43,30.01,29.49,8,2,8,0.00
2012-4-28,61.6,46.0,27.7,36.4,27.8,21.8,81,52,29,30.10,29.98,5,1,6,0.00
2012-4-29,63.9,49.2,33.5,30.9,24.0,17.5,63,39,23,30.15,29.95,7,1,7,0.00
2012-4-30,67.9,50.0,30.1,36.5,28.4,18.5,66,46,26,30.25,30.11,7,2,7,0.00
2012-5-1,63.9,53.4,46.4,56.6,47.5,36.3,91,81,64,30.10,29.89,7,1,8,0.30
2012-5-2,56.2,50.4,46.3,49.7,46.0,43.1,91,85,77,30.10,30.01,5,1,6,0.02
2012-5-3,57.2,51.8,48.2,54.4,49.2,45.3,94,91,86,30.09,30.00,6,1,7,0.39
2012-5-4,76.7,60.5,49.9,67.2,56.6,48.2,95,88,70,30.02,29.79,4,1,6,0.18
2012-5-5,68.6,58.9,54.2,61.0,55.2,52.2,95,88,74,29.97,29.83,4,1,5,0.03
2012-5-6,69.8,58.4,45.9,56.0,50.7,41.2,93,77,51,30.04,29.96,5,1,6,0.00
2012-5-7,74.5,57.5,43.7,57.1,47.6,40.1,91,71,52,30.05,30.00,6,2,7,0.00
2012-5-8,66.4,56.1,50.4,56.3,50.2,44.5,93,81,67,30.01,29.76,12,3,12,0.28
2012-5-9,70.6,61.0,55.3,65.8,58.5,53.3,95,92,82,29.77,29.51,4,1,5,0.20
2012-5-10,66.4,54.9,40.7,56.7,47.3,35.3,95,77,51,29.72,29.41,7,1,7,0.50
2012-5-11,70.9,55.1,39.8,50.6,38.8,30.3,88,58,32,30.02,29.72,7,1,8,0.01
2012-5-12,81.0,61.1,37.3,52.2,42.1,30.7,84,53,30,30.13,30.01,5,1,6,0.00
2012-5-13,86.9,67.2,48.8,59.5,51.5,42.9,86,60,33,30.10,30.00,7,1,7,0.00
2012-5-14,75.4,64.7,59.2,63.7,58.1,54.5,92,80,64,30.07,30.01,6,1,6,0.01
2012-5-15,64.1,60.8,57.8,61.0,58.2,55.2,95,91,83,30.05,29.88,6,1,8,0.00
2012-5-16,78.5,66.7,59.9,70.1,62.9,58.0,96,88,72,29.88,29.75,8,1,8,0.00
2012-5-17,73.1,60.2,46.8,58.2,45.8,40.7,93,62,38,30.06,29.83,5,1,6,0.00
2012-5-18,76.1,59.1,44.1,54.7,44.1,38.6,85,60,35,30.15,30.06,7,1,7,0.00
2012-5-19,83.7,63.5,42.1,54.7,46.5,37.3,86,58,28,30.10,30.02,7,1,8,0.00
2012-5-20,82.4,64.5,48.8,58.7,43.4,28.6,89,52,21,30.18,30.08,8,1,10,0.00
2012-5-21,63.7,59.3,53.6,61.4,53.5,35.9,94,82,51,30.15,29.93,6,1,7,0.72
2012-5-22,69.5,63.1,58.7,66.4,61.3,57.0,96,94,89,29.94,29.74,5,1,5,0.23
2012-5-23,77.8,66.9,59.6,70.0,63.2,57.6,96,88,74,29.98,29.79,6,1,7,0.01
2012-5-24,72.4,63.3,56.7,66.7,60.1,54.7,96,90,77,30.14,29.98,5,1,7,0.07
2012-5-25,73.8,65.0,57.6,68.9,62.4,56.2,96,92,83,30.14,30.05,6,1,7,0.12
2012-5-26,91.6,73.5,63.9,78.0,67.9,61.2,96,84,61,30.07,29.99,4,1,6,0.00
2012-5-27,87.1,71.3,58.9,68.1,61.8,56.5,93,74,49,30.10,29.94,5,1,7,0.06
2012-5-28,93.1,76.4,62.3,76.5,68.2,59.9,94,77,53,29.94,29.83,4,1,6,0.00
2012-5-29,94.7,78.4,64.6,79.3,69.6,62.0,94,76,56,29.84,29.64,6,1,10,0.35
2012-5-30,80.8,70.6,61.6,72.2,64.6,57.3,94,82,62,29.71,29.64,6,1,6,0.01
2012-5-31,80.6,68.2,56.2,61.8,54.9,48.4,94,66,41,29.86,29.66,6,1,8,0.00
2012-6-1,73.8,62.1,51.7,58.1,52.3,45.4,94,72,51,29.95,29.79,8,2,9,0.01
2012-6-2,78.3,64.5,56.0,70.7,58.7,51.4,96,83,55,29.78,29.59,9,1,9,1.11
2012-6-3,79.6,64.5,49.7,63.0,54.0,47.2,93,71,47,29.68,29.55,6,1,7,0.01
2012-6-4,63.5,55.5,49.0,52.1,49.1,44.7,89,80,58,29.73,29.54,8,1,8,0.02
2012-6-5,66.1,55.0,46.4,58.0,49.1,43.1,91,81,62,29.86,29.71,4,0,5,0.15
2012-6-6,76.7,61.3,44.5,63.2,52.4,42.3,95,74,49,29.91,29.85,3,0,5,0.51
2012-6-7,81.2,65.4,50.8,64.4,54.7,48.2,93,71,41,29.90,29.81,5,0,5,0.04
2012-6-8,85.7,66.3,49.1,66.3,55.5,46.4,93,71,41,29.87,29.75,4,1,6,0.06
2012-6-9,75.6,63.6,54.0,68.2,59.0,51.0,93,85,66,29.91,29.77,4,0,4,0.02
2012-6-10,85.9,71.0,57.8,71.3,62.8,55.4,94,77,57,30.12,29.91,6,1,9,0.00
2012-6-11,79.6,67.4,59.4,63.5,57.9,55.1,90,73,45,30.19,30.10,10,2,10,0.00
2012-6-12,75.1,64.8,58.7,66.9,61.4,55.2,95,89,73,30.12,29.85,8,2,9,0.42
2012-6-13,71.3,65.0,61.9,65.3,62.3,59.4,96,91,78,30.00,29.81,6,1,6,0.70
2012-6-14,77.4,66.8,56.5,63.6,58.8,53.8,95,77,54,30.17,30.00,5,1,7,0.00
2012-6-15,80.1,68.7,55.3,69.0,55.1,49.0,94,65,40,30.23,30.16,5,1,6,0.00
2012-6-16,83.2,67.3,50.2,64.9,54.9,47.3,92,68,37,30.25,30.14,5,1,7,0.00
2012-6-17,76.7,62.6,51.3,63.0,55.0,47.5,89,77,59,30.17,30.01,7,1,7,0.00
2012-6-18,77.8,61.3,48.2,60.8,53.7,45.5,93,77,50,30.07,30.01,6,1,6,0.00
2012-6-19,81.4,66.1,52.7,69.3,60.3,49.4,91,82,64,30.09,29.99,4,1,6,0.00
2012-6-20,98.1,80.7,61.7,79.9,70.8,59.4,94,74,51,30.01,29.86,4,1,4,0.00
2012-6-21,96.7,83.1,68.9,79.5,71.3,66.5,94,70,47,29.87,29.72,6,0,6,0.00
2012-6-22,96.1,77.1,67.3,77.7,69.4,63.5,92,79,50,29.75,29.68,4,0,6,0.43
2012-6-23,87.1,73.2,58.7,69.0,62.0,52.4,94,70,42,29.91,29.75,6,1,6,0.00
2012-6-24,87.1,72.3,54.4,68.5,57.9,50.7,93,64,37,29.94,29.83,3,1,4,0.01
2012-6-25,77.4,64.7,56.7,67.3,60.5,51.4,94,86,69,29.83,29.60,8,1,8,0.31
2012-6-26,72.4,60.8,48.1,60.7,52.7,45.4,92,76,61,29.68,29.60,6,1,6,0.00
2012-6-27,83.9,68.9,52.2,63.2,51.9,46.5,88,58,32,29.75,29.61,5,1,8,0.00
2012-6-28,89.3,71.4,51.8,66.0,57.9,46.8,89,65,41,29.76,29.65,4,1,4,0.00
2012-6-29,94.7,78.2,64.3,76.7,68.4,59.7,91,73,54,29.67,29.57,4,1,5,0.04
2012-6-30,94.0,79.8,61.9,73.6,65.5,58.4,91,65,40,29.72,29.62,5,1,5,0.00
2012-7-1,95.2,78.8,62.6,74.5,66.1,56.5,92,67,47,29.80,29.70,6,1,6,0.00
2012-7-2,88.6,74.1,59.2,69.8,60.2,54.6,87,64,45,29.86,29.79,4,1,6,0.00
2012-7-3,90.2,75.3,56.3,71.1,61.4,52.4,91,65,42,29.89,29.77,4,1,4,0.00
2012-7-4,93.1,77.8,67.5,75.8,69.8,63.3,91,78,53,29.78,29.65,4,1,5,0.21
2012-7-5,92.2,78.3,65.2,78.8,68.4,60.8,95,74,45,29.81,29.65,6,1,6,0.01
2012-7-6,92.0,77.3,60.1,71.5,63.9,57.8,94,66,42,29.86,29.79,3,1,3,0.00
2012-7-7,94.9,78.5,66.8,76.0,69.2,63.5,91,74,52,29.82,29.72,4,1,5,0.00
2012-7-8,93.4,79.4,64.8,72.4,65.8,59.5,92,65,40,29.83,29.74,4,1,4,0.00
2012-7-9,87.5,74.1,61.6,63.8,59.0,55.4,84,61,39,29.91,29.81,4,1,6,0.00
2012-7-10,90.5,73.5,57.2,62.1,57.7,52.1,87,61,33,30.02,29.91,6,1,9,0.00
2012-7-11,91.6,74.0,61.9,72.5,63.0,58.1,91,70,45,30.12,30.01,6,1,7,0.00
2012-7-12,95.0,77.5,61.2,72.7,63.5,57.9,94,65,39,30.14,30.06,4,1,6,0.00
2012-7-13,91.8,76.9,63.0,73.3,65.9,59.1,88,70,51,30.14,30.08,4,1,5,0.00
2012-7-14,93.1,78.7,65.5,73.6,65.6,61.1,90,66,43,30.12,30.04,6,1,6,0.02
2012-7-15,90.0,74.7,64.6,76.3,68.1,60.2,94,81,62,30.08,29.85,4,1,5,1.74
2012-7-16,92.5,79.1,67.7,77.1,70.7,65.9,95,77,52,29.85,29.72,4,1,5,0.01
2012-7-17,96.7,81.8,65.3,77.2,69.3,62.6,94,69,45,29.78,29.67,5,1,6,0.00
2012-7-18,101.5,81.7,72.4,80.6,72.7,67.2,92,76,48,29.83,29.70,5,1,6,0.12
2012-7-19,80.1,71.2,64.3,71.0,64.3,60.2,94,80,62,29.94,29.81,4,1,5,0.00
2012-7-20,65.3,62.3,59.0,62.5,60.2,57.1,95,93,86,29.99,29.88,4,1,6,0.51
2012-7-21,83.7,67.8,57.6,68.0,58.5,52.1,96,75,43,30.06,29.96,6,1,6,0.01
2012-7-22,88.0,71.2,54.0,71.1,60.8,51.7,94,72,49,30.09,30.03,7,1,7,0.00
2012-7-23,87.7,73.5,62.5,76.3,68.1,57.9,93,84,68,30.06,29.73,6,1,7,0.23
2012-7-24,91.1,77.6,65.9,76.9,68.0,60.0,94,74,54,29.73,29.54,4,1,5,0.00
2012-7-25,84.4,71.7,60.3,63.0,58.1,51.5,85,63,45,29.83,29.69,4,1,6,0.00
2012-7-26,88.4,73.0,64.1,75.8,66.8,59.1,93,81,65,29.73,29.56,5,1,9,0.53
2012-7-27,89.3,76.7,68.6,79.0,70.9,66.4,96,83,66,29.82,29.60,4,1,5,0.01
2012-7-28,83.0,71.0,65.2,73.8,67.8,63.4,95,90,71,29.89,29.82,4,1,5,0.85
2012-7-29,80.8,69.6,64.8,70.8,65.3,61.8,96,87,67,29.99,29.82,4,1,4,0.02
2012-7-30,84.8,70.5,61.7,73.1,64.8,59.6,95,83,63,30.06,29.99,6,1,7,0.01
2012-7-31,80.3,69.1,61.7,69.3,63.5,59.3,94,83,66,30.03,29.85,5,1,6,0.00
2012-8-1,88.2,72.6,61.2,76.9,67.9,58.9,95,86,66,29.87,29.78,4,1,6,0.01
2012-8-2,92.0,77.8,66.8,77.0,69.6,65.0,95,78,50,29.86,29.77,3,1,4,0.00
2012-8-3,96.1,79.5,65.7,78.7,71.3,63.5,95,78,53,30.04,29.86,4,1,5,0.00
2012-8-4,95.0,80.1,68.8,79.7,71.8,66.3,95,78,55,30.14,30.04,8,1,8,0.00
2012-8-5,92.9,79.7,70.6,80.3,73.6,67.9,94,83,64,30.14,29.87,8,2,9,0.33
2012-8-6,86.9,75.1,60.7,74.2,66.2,56.8,95,76,50,29.95,29.88,5,1,6,0.71
2012-8-7,87.7,71.7,57.6,69.0,61.8,54.9,93,73,49,29.95,29.89,5,1,5,0.00
2012-8-8,92.2,76.3,61.7,75.8,67.2,59.0,94,76,49,29.93,29.87,4,1,6,0.00
2012-8-9,92.7,78.4,69.7,78.5,70.9,64.5,94,79,56,29.90,29.81,6,1,6,0.01
2012-8-10,80.6,74.3,69.3,75.3,71.1,67.5,94,90,82,29.85,29.70,6,1,8,0.70
2012-8-11,87.3,75.9,67.7,78.8,71.4,66.2,96,86,67,29.85,29.74,8,1,8,0.53
2012-8-12,90.0,76.7,63.9,74.4,67.6,59.7,93,75,50,29.88,29.81,4,1,6,0.00
2012-8-13,87.5,71.8,59.2,69.9,62.7,56.9,95,75,49,29.93,29.86,3,0,5,0.00
2012-8-14,84.2,70.4,58.7,72.6,64.7,56.3,94,83,63,29.92,29.83,4,0,5,0.00
2012-8-15,82.8,71.7,64.4,73.8,67.5,62.7,95,87,70,29.85,29.77,6,1,6,0.67
2012-8-16,85.0,71.8,61.6,71.3,64.5,58.3,96,79,54,29.84,29.79,4,0,5,0.01
2012-8-17,91.3,73.3,57.1,74.4,64.8,54.7,94,77,50,29.83,29.71,5,1,6,0.00
2012-8-18,81.2,67.0,55.4,68.1,60.9,52.2,94,82,51,29.87,29.78,3,0,4,0.51
2012-8-19,76.7,64.4,51.5,62.8,56.6,48.3,92,77,59,29.91,29.85,2,0,4,0.00
2012-8-20,82.8,68.0,54.4,68.3,59.7,52.0,94,76,53,29.87,29.77,4,0,4,0.00
2012-8-21,82.6,69.5,59.4,64.9,60.2,56.8,93,74,49,30.03,29.85,4,0,5,0.00
2012-8-22,88.2,70.2,57.6,69.9,60.9,55.0,94,75,46,30.08,30.02,5,1,9,0.00
2012-8-23,90.7,71.9,58.0,72.0,63.0,55.6,94,76,47,30.09,30.03,4,0,4,0.00
2012-8-24,89.8,76.2,61.7,68.9,62.8,58.8,92,65,45,30.13,30.05,4,1,4,0.00
2012-8-25,86.0,71.4,62.5,70.2,63.0,58.2,94,76,51,30.23,30.12,7,1,8,0.00
2012-8-26,84.2,69.9,60.3,67.0,60.6,56.1,93,75,42,30.26,30.16,6,1,7,0.00
2012-8-27,86.0,71.4,58.9,73.8,66.0,56.0,94,84,63,30.16,29.88,7,1,7,0.00
2012-8-28,87.8,75.1,63.7,73.5,67.5,57.1,94,79,55,29.88,29.73,5,1,5,0.02
2012-8-29,78.8,65.5,52.9,59.1,54.3,48.7,90,69,45,29.94,29.83,5,1,6,0.00
2012-8-30,83.3,64.6,47.9,64.4,54.1,45.2,93,72,42,30.02,29.93,3,0,3,0.00
2012-8-31,93.1,72.5,55.6,69.2,60.2,52.7,93,68,39,29.97,29.81,4,1,6,0.00
2012-9-1,91.3,75.3,62.3,72.9,64.7,58.4,89,71,43,30.01,29.84,6,1,7,0.08
2012-9-2,86.4,71.5,64.1,72.8,65.4,61.7,93,82,61,30.04,29.95,4,1,4,0.02
2012-9-3,76.9,68.1,62.3,66.6,63.1,60.3,94,85,66,30.11,30.03,5,1,5,0.00
2012-9-4,79.9,72.0,65.5,73.8,68.3,61.9,95,88,81,30.05,29.78,6,1,7,0.10
2012-9-5,80.8,73.6,64.4,76.1,70.6,62.5,96,91,76,29.78,29.71,6,1,6,1.02
2012-9-6,86.0,69.9,61.9,75.5,65.6,60.2,96,87,68,29.85,29.76,3,0,4,0.00
2012-9-7,91.1,74.5,63.2,75.9,68.3,61.2,95,82,58,29.87,29.77,5,1,5,0.01
2012-9-8,79.0,72.1,63.5,74.5,69.3,61.2,95,91,85,29.81,29.52,11,2,11,2.19
2012-9-14,61.4,60.9,60.7,58.1,57.8,57.6,90,89,89,30.02,30.01,0,0,1,0.00
2012-9-15,74.2,61.8,48.2,58.8,53.6,44.4,94,76,50,30.04,29.96,7,1,7,0.02
2012-9-16,77.0,57.1,44.3,61.0,49.3,41.6,94,77,50,30.04,29.95,6,0,6,0.01
2012-9-17,82.3,60.7,44.3,66.6,52.3,41.6,94,76,49,30.03,29.95,4,0,5,0.00
2012-9-18,71.8,66.1,54.7,68.8,63.7,50.6,95,92,85,29.97,29.59,12,3,17,0.61
2012-9-19,70.7,62.6,54.7,64.5,57.3,50.6,96,84,51,29.98,29.66,5,1,5,0.00
2012-9-22,68.8,65.7,59.2,65.3,62.3,56.9,93,89,81,29.78,29.72,7,2,8,0.02
2012-9-23,70.0,57.3,43.0,57.3,50.1,39.7,95,79,48,30.02,29.76,4,1,6,0.01
2012-9-24,71.8,51.9,41.2,52.7,43.6,38.1,94,76,44,30.06,30.00,4,0,5,0.00
2012-9-25,74.9,56.6,38.9,58.3,47.5,36.2,94,74,43,30.09,30.03,7,2,7,0.00
2012-9-26,73.3,63.9,57.8,64.9,59.1,53.6,91,85,74,30.05,29.93,3,1,4,0.02
2012-9-27,77.9,64.3,57.6,66.6,58.7,51.7,94,83,57,30.11,29.96,3,0,4,0.01
2012-9-28,63.2,57.9,55.1,61.1,55.9,51.1,96,93,79,30.10,29.86,8,2,8,0.15
2012-9-29,63.5,57.4,54.5,58.4,54.5,52.8,95,90,81,29.86,29.78,2,0,3,0.00
2012-9-30,72.7,57.0,47.5,61.7,52.2,44.8,95,85,59,29.80,29.67,3,0,4,0.00
2012-10-1,70.9,55.2,44.5,57.2,49.0,42.3,94,81,58,29.89,29.70,6,1,8,0.01
2012-10-2,68.2,58.3,50.9,61.4,55.7,48.1,95,91,73,29.96,29.87,4,0,4,0.39
2012-10-3,72.4,64.7,59.0,70.6,63.2,57.6,97,95,92,30.04,29.90,3,0,3,0.00
2012-10-4,70.9,67.2,63.5,69.4,65.5,62.1,97,95,92,30.06,29.96,3,0,5,0.04
2012-10-5,79.6,65.4,57.8,69.7,60.8,54.9,97,86,61,29.99,29.85,4,0,4,0.00
2012-10-6,78.7,60.3,47.5,67.3,55.1,42.3,94,84,62,29.89,29.68,6,1,7,0.00
2012-10-7,54.9,47.6,38.5,47.8,42.4,35.6,91,82,70,30.00,29.88,2,0,5,0.13
2012-10-8,57.2,46.7,36.9,49.7,42.2,34.5,94,85,69,30.18,29.99,4,0,4,0.01
2012-10-9,56.9,51.1,45.2,50.8,47.1,42.8,92,86,77,30.14,30.00,6,1,6,0.00
2012-10-10,64.4,53.7,47.9,61.4,50.4,41.5,95,89,77,30.00,29.69,6,1,6,0.22
2012-10-11,60.8,47.6,40.0,45.1,38.6,34.8,87,72,46,30.07,29.83,6,1,6,0.01
2012-10-12,55.1,42.0,34.4,46.3,36.5,26.7,92,81,61,30.30,29.93,6,0,6,0.03
2012-10-13,57.6,41.1,25.6,41.1,30.3,22.1,89,68,39,30.39,30.18,5,1,6,0.00
2012-10-14,68.2,56.3,45.0,56.4,49.3,37.9,88,78,62,30.19,29.86,6,3,8,0.01
2012-10-15,71.1,62.3,55.8,63.6,57.9,53.4,92,86,74,29.86,29.56,8,2,8,0.19
2012-10-16,61.0,49.9,36.2,53.6,42.3,32.6,93,76,50,29.82,29.56,7,1,7,0.01
2012-10-17,65.0,46.0,32.8,52.9,39.5,29.9,92,79,58,29.91,29.81,2,0,3,0.00
2012-10-18,68.0,52.2,39.1,56.9,46.4,36.5,94,82,59,29.96,29.89,6,1,7,0.00
2012-10-19,64.1,61.6,56.5,62.6,59.9,53.3,95,94,88,29.89,29.61,12,3,12,2.00
2012-10-20,75.4,61.2,45.9,66.8,54.6,39.2,96,80,54,29.73,29.57,5,1,6,0.00
2012-10-21,65.7,51.8,42.3,49.0,41.5,37.4,86,69,46,29.89,29.73,8,1,8,0.00
2012-10-22,67.1,52.9,40.0,49.8,42.2,36.1,88,69,45,29.98,29.89,6,1,6,0.00
2012-10-23,63.2,52.5,42.8,51.3,46.5,38.2,92,80,63,30.03,29.96,2,0,2,0.12
2012-10-24,55.4,52.4,50.0,51.3,49.4,46.9,93,90,83,30.11,30.01,5,1,5,0.05
2012-10-25,59.6,53.7,49.3,54.3,50.0,46.8,93,87,76,30.18,30.11,5,0,5,0.06
2012-10-26,65.5,58.2,51.5,59.2,54.0,48.3,92,86,79,30.15,30.03,2,0,3,0.00
2012-10-27,64.8,58.3,53.5,57.3,54.1,50.3,91,86,74,30.04,29.85,3,0,4,0.00
2012-10-28,56.5,53.5,51.3,51.8,47.8,42.5,91,81,71,29.85,29.59,8,3,8,0.00
2012-10-29,60.5,52.9,49.7,58.8,50.4,45.9,95,91,84,29.60,28.65,18,5,18,0.93
2012-10-30,55.8,52.8,49.0,50.8,48.5,45.3,92,85,80,29.40,29.26,12,3,13,0.02
2012-10-31,50.8,46.4,42.8,46.9,40.9,38.0,89,81,77,29.48,29.38,5,1,5,0.00
2012-11-1,43.6,43.3,42.7,39.3,39.0,38.2,85,85,84,29.50,29.47,1,1,3,0.00
2012-11-2,55.4,46.6,39.1,42.5,36.4,32.0,85,68,53,29.62,29.49,5,1,6,0.00
2012-11-3,51.1,44.6,36.7,36.5,32.4,28.6,78,62,51,29.80,29.61,6,2,8,0.00
2012-11-4,52.4,43.7,34.9,37.4,32.5,28.1,78,65,51,29.87,29.79,5,1,7,0.00
2012-11-5,44.5,35.5,27.2,30.1,24.8,17.8,73,65,52,30.05,29.85,7,1,7,0.00
2012-11-6,44.6,30.4,20.0,26.8,19.3,15.0,84,65,43,30.11,29.98,4,0,4,0.00
2012-11-7,37.1,32.1,29.2,30.8,26.9,20.2,94,82,65,29.98,29.64,7,2,8,0.00
2012-11-8,43.6,35.3,29.3,31.4,28.4,27.2,93,77,61,29.77,29.61,9,2,9,0.29
2012-11-9,53.1,39.7,30.8,29.8,25.6,20.4,77,59,38,30.07,29.76,7,1,7,0.00
2012-11-10,52.7,41.0,29.9,43.1,34.4,25.2,89,78,65,30.33,30.07,3,0,3,0.00
2012-11-11,64.8,51.5,38.2,54.1,45.7,33.9,92,81,62,30.39,30.31,6,2,6,0.00
2012-11-12,64.4,54.7,44.5,58.3,51.4,42.0,93,89,78,30.37,30.11,10,2,10,0.00
2012-11-13,59.6,45.2,33.5,57.2,41.4,28.0,93,86,77,30.33,30.02,9,2,9,0.09
2012-11-14,47.7,36.0,29.5,33.7,27.4,23.5,83,72,53,30.40,30.32,5,1,5,0.00
2012-11-15,45.7,34.3,27.4,31.2,26.1,22.2,83,72,52,30.35,30.17,5,1,5,0.00
2012-11-16,45.7,36.0,28.8,32.0,26.9,23.7,88,70,55,30.32,30.17,4,1,6,0.00
2012-11-17,52.2,38.0,29.2,35.6,28.4,22.8,81,69,50,30.51,30.32,5,1,5,0.00
2012-11-18,49.9,36.4,29.0,36.1,28.8,25.5,87,75,54,30.56,30.46,4,1,5,0.01
2012-11-19,48.8,36.0,28.4,38.9,30.5,24.9,90,81,65,30.46,30.14,5,1,6,0.00
2012-11-20,50.6,36.3,28.1,37.5,29.8,25.2,92,78,52,30.14,30.01,4,0,4,0.00
2012-11-21,53.6,39.5,29.9,37.9,28.3,23.9,85,66,40,30.14,30.04,4,1,7,0.00
2012-11-22,58.5,40.9,32.0,45.6,34.6,27.3,92,79,56,30.17,30.03,3,1,3,0.00
2012-11-23,59.6,43.6,31.5,50.6,38.8,29.0,93,84,63,30.03,29.57,6,1,6,0.02
2012-11-24,45.5,38.5,31.1,42.8,26.1,18.6,90,62,44,29.68,29.55,8,2,8,0.01
2012-11-25,40.9,32.9,29.5,24.7,21.5,18.2,72,63,49,29.82,29.68,6,2,6,0.00
2012-11-26,47.9,35.9,27.0,28.9,22.9,17.8,72,60,41,30.13,29.81,5,1,5,0.00
2012-11-27,34.9,32.3,27.0,31.0,27.8,18.5,93,84,70,30.19,30.09,2,0,3,0.01
2012-11-28,41.8,31.9,24.3,33.7,26.8,20.2,92,82,59,30.12,30.04,4,0,6,0.00
2012-11-29,44.1,31.9,23.9,33.6,25.6,20.5,88,78,63,30.21,30.12,6,1,8,0.00
2012-11-30,43.4,34.9,29.9,32.6,27.3,23.2,80,74,63,30.35,30.17,8,1,8,0.00
2012-12-1,34.7,32.5,29.5,32.6,28.4,22.8,94,85,73,30.42,30.32,6,2,7,0.00
2012-12-2,49.9,42.1,34.4,46.6,39.8,32.8,94,92,85,30.32,30.00,4,2,5,0.01
2012-12-3,58.0,46.0,37.1,52.9,42.5,34.4,95,88,73,30.17,29.98,3,1,4,0.00
2012-12-4,56.9,48.0,37.1,54.0,45.8,34.9,94,92,89,30.18,29.88,5,2,7,0.01
2012-12-5,54.7,46.0,30.6,50.0,37.4,20.5,94,73,54,30.10,29.81,8,2,8,0.00
2012-12-6,40.3,28.9,21.6,23.0,18.0,15.2,77,64,45,30.23,30.08,7,1,7,0.00
2012-12-7,43.0,34.6,22.0,38.2,30.6,15.9,92,85,77,30.15,29.92,4,1,5,0.01
2012-12-8,49.9,44.7,40.1,48.2,42.9,38.0,95,94,92,29.91,29.76,3,1,4,0.00
2012-12-9,46.1,41.2,38.9,44.6,38.4,34.3,95,90,79,30.14,29.89,7,2,7,0.00
2012-12-10,56.7,50.1,40.7,55.3,48.8,39.3,96,95,94,29.93,29.46,7,2,7,0.00
2012-12-11,52.9,41.7,32.6,51.8,35.9,26.5,96,80,61,30.07,29.49,6,1,6,0.00
2012-12-12,42.8,32.8,26.3,33.3,26.2,22.6,89,77,58,30.31,30.07,3,0,4,0.00
2012-12-13,45.0,31.7,24.3,31.7,24.8,20.4,90,77,53,30.34,30.19,4,0,4,0.00
2012-12-14,48.6,33.1,22.5,34.8,24.9,19.2,89,73,50,30.19,30.02,5,1,5,0.00
2012-12-15,46.4,34.8,25.7,34.8,27.8,21.2,87,76,57,30.20,30.10,3,0,6,0.00
2012-12-16,38.0,36.7,35.3,36.4,34.1,32.1,95,91,81,30.12,29.83,8,3,8,0.00
2012-12-17,40.0,37.2,35.1,38.6,35.8,33.8,95,95,95,29.83,29.56,7,2,10,0.03
2012-12-18,50.0,43.6,39.6,48.9,42.1,35.8,96,94,87,29.56,29.36,7,1,8,0.03
2012-12-19,49.1,39.4,31.7,35.8,30.0,24.8,87,70,50,29.99,29.46,6,1,7,0.00
2012-12-20,45.2,35.3,26.3,37.9,29.0,21.8,93,78,58,30.08,29.74,8,1,9,0.02
2012-12-21,54.4,42.7,35.1,53.2,39.7,30.1,96,89,82,29.77,28.99,15,4,16,1.42
2012-12-22,35.1,33.1,31.5,31.3,25.3,20.0,92,74,61,29.65,29.19,11,3,11,0.00
2012-12-23,41.0,33.3,27.4,29.3,23.4,19.2,75,67,57,29.82,29.64,6,2,8,0.00
2012-12-24,39.6,30.5,21.8,28.1,22.6,16.1,90,73,59,29.97,29.81,4,0,5,0.00
2012-12-25,38.5,32.0,26.6,34.7,28.9,22.4,93,88,83,30.12,29.80,4,1,5,0.09
2012-12-26,34.2,27.8,22.9,32.7,23.6,19.0,95,84,67,30.17,29.46,13,3,14,0.01
2012-12-27,36.9,33.6,27.0,35.3,31.0,21.6,95,90,79,29.66,29.20,10,3,16,0.29
2012-12-28,39.1,29.2,23.2,29.0,23.0,19.4,87,78,63,29.94,29.66,6,1,7,0.00
2012-12-29,31.0,27.7,21.8,28.5,25.0,18.5,93,89,84,29.91,29.39,3,1,5,0.00
2012-12-30,34.9,27.1,21.8,25.8,19.0,12.8,92,72,53,29.99,29.44,8,2,10,0.13
2012-12-31,37.3,29.0,17.6,25.8,20.6,11.1,80,71,60,30.01,29.74,6,2,8,0.01
2013-1-1,38.0,32.4,20.7,28.4,22.5,10.7,75,67,57,29.87,29.70,5,2,6,0.00